createdAt,value
2023-02-19T00:00:35.421Z,2.40
2023-02-19T00:04:03.194Z,1.98
2023-02-19T00:07:05.346Z,1.75
2023-02-19T00:10:07.406Z,2.10
2023-02-19T00:13:39.665Z,2.20
2023-02-19T00:16:41.635Z,2.15
2023-02-19T00:19:43.814Z,1.70
2023-02-19T00:22:45.693Z,1.52
2023-02-19T00:25:47.753Z,2.13
2023-02-19T00:28:51.302Z,2.80
2023-02-19T00:31:53.471Z,2.13
2023-02-19T00:34:55.319Z,2.15
2023-02-19T00:37:57.524Z,2.47
2023-02-19T00:41:00.513Z,2.22
2023-02-19T00:44:07.740Z,3.45
2023-02-19T00:47:09.541Z,2.60
2023-02-19T00:53:16.217Z,1.48
2023-02-19T00:56:18.871Z,1.55
2023-02-19T00:59:20.845Z,2.05
2023-02-19T01:02:23.190Z,2.05
2023-02-19T01:05:25.153Z,2.15
2023-02-19T01:08:27.522Z,2.03
2023-02-19T01:11:29.485Z,1.70
2023-02-19T01:14:31.896Z,1.80
2023-02-19T01:17:36.106Z,1.90
2023-02-19T01:23:42.269Z,1.80
2023-02-19T01:26:44.409Z,3.58
2023-02-19T01:29:46.273Z,2.25
2023-02-19T01:32:57.017Z,2.60
2023-02-19T01:36:07.053Z,1.40
2023-02-19T01:39:10.848Z,2.30
2023-02-19T01:42:15.501Z,2.95
2023-02-19T01:45:35.570Z,3.05
2023-02-19T01:48:39.520Z,1.80
2023-02-19T01:51:46.285Z,1.27
2023-02-19T01:54:49.728Z,1.50
2023-02-19T01:57:55.246Z,2.15
2023-02-19T02:00:57.568Z,1.58
2023-02-19T02:04:00.617Z,1.80
2023-02-19T02:07:24.531Z,2.20
2023-02-19T02:10:26.759Z,1.77
2023-02-19T02:13:29.063Z,1.60
2023-02-19T02:16:45.011Z,1.83
2023-02-19T02:20:05.317Z,2.00
2023-02-19T02:23:50.378Z,1.77
2023-02-19T02:27:18.016Z,1.25
2023-02-19T02:30:41.754Z,2.35
2023-02-19T02:33:50.395Z,1.98
2023-02-19T02:36:55.759Z,1.35
2023-02-19T02:39:59.287Z,1.40
2023-02-19T02:43:01.856Z,1.55
2023-02-19T02:46:06.003Z,1.90
2023-02-19T02:49:21.084Z,2.08
2023-02-19T02:52:41.677Z,1.70
2023-02-19T02:55:47.390Z,1.77
2023-02-19T02:58:51.217Z,2.20
2023-02-19T03:02:11.716Z,2.40
2023-02-19T03:05:37.383Z,1.80
2023-02-19T03:08:45.838Z,1.50
2023-02-19T03:12:10.709Z,2.30
2023-02-19T03:15:54.534Z,1.63
2023-02-19T03:19:17.086Z,3.17
2023-02-19T03:22:25.648Z,2.60
2023-02-19T03:25:50.520Z,2.22
2023-02-19T03:29:20.023Z,2.40
2023-02-19T03:32:31.445Z,2.17
2023-02-19T03:35:41.184Z,2.08
2023-02-19T03:38:52.662Z,2.90
2023-02-19T03:41:55.172Z,2.25
2023-02-19T03:45:02.903Z,1.80
2023-02-19T03:48:15.890Z,2.10
2023-02-19T03:51:27.524Z,2.35
2023-02-19T03:54:52.991Z,1.88
2023-02-19T03:58:30.203Z,2.67
2023-02-19T04:01:36.063Z,3.05
2023-02-19T04:04:56.428Z,2.03
2023-02-19T04:08:04.241Z,2.60
2023-02-19T04:11:12.195Z,2.88
2023-02-19T04:14:23.255Z,2.45
2023-02-19T04:17:31.828Z,2.00
2023-02-19T04:20:42.364Z,1.92
2023-02-19T04:23:45.770Z,2.60
2023-02-19T04:26:52.487Z,2.90
2023-02-19T04:29:54.624Z,3.00
2023-02-19T04:32:57.893Z,2.80
2023-02-19T04:36:00.220Z,2.22
2023-02-19T04:39:02.648Z,2.15
2023-02-19T04:42:05.085Z,2.95
2023-02-19T04:45:08.184Z,2.67
2023-02-19T04:48:10.377Z,3.15
2023-02-19T04:51:13.463Z,2.72
2023-02-19T04:54:15.779Z,2.47
2023-02-19T04:57:18.384Z,2.47
2023-02-19T05:00:20.920Z,3.15
2023-02-19T05:03:23.401Z,2.80
2023-02-19T05:06:25.705Z,2.58
2023-02-19T05:09:28.165Z,2.75
2023-02-19T05:12:31.316Z,3.33
2023-02-19T05:15:33.895Z,4.05
2023-02-19T05:18:36.261Z,3.03
2023-02-19T05:21:40.481Z,3.13
2023-02-19T05:24:42.701Z,2.73
2023-02-19T05:27:45.394Z,3.28
2023-02-19T05:30:52.704Z,2.53
2023-02-19T05:33:56.843Z,3.92
2023-02-19T05:36:58.763Z,2.20
2023-02-19T05:40:01.289Z,2.95
2023-02-19T05:43:04.199Z,3.38
2023-02-19T05:46:08.462Z,3.20
2023-02-19T05:49:10.335Z,3.35
2023-02-19T05:52:13.111Z,3.58
2023-02-19T05:55:15.109Z,4.25
2023-02-19T05:58:17.583Z,3.22
2023-02-19T06:01:22.608Z,3.58
2023-02-19T06:04:25.700Z,3.88
2023-02-19T06:07:27.634Z,2.60
2023-02-19T06:10:30.219Z,3.78
2023-02-19T06:13:32.609Z,3.50
2023-02-19T06:16:35.273Z,3.33
2023-02-19T06:19:37.454Z,3.80
2023-02-19T06:22:40.102Z,2.83
2023-02-19T06:25:42.318Z,2.92
2023-02-19T06:28:46.982Z,3.30
2023-02-19T06:31:48.928Z,3.17
2023-02-19T06:34:51.209Z,3.15
2023-02-19T06:37:54.621Z,3.22
2023-02-19T06:41:02.048Z,4.63
2023-02-19T06:44:04.213Z,3.80
2023-02-19T06:47:07.377Z,2.42
2023-02-19T06:50:09.384Z,3.13
2023-02-19T06:53:12.366Z,2.90
2023-02-19T06:56:26.791Z,5.05
2023-02-19T06:59:29.330Z,3.83
2023-02-19T07:02:31.527Z,3.58
2023-02-19T07:05:34.047Z,3.78
2023-02-19T07:08:36.187Z,5.25
2023-02-19T07:11:39.910Z,4.07
2023-02-19T07:14:43.147Z,5.80
2023-02-19T07:17:45.569Z,4.25
2023-02-19T07:20:48.508Z,4.00
2023-02-19T07:23:54.298Z,3.15
2023-02-19T07:26:56.360Z,4.45
2023-02-19T07:29:59.561Z,4.57
2023-02-19T07:33:01.887Z,5.05
2023-02-19T07:36:07.877Z,4.80
2023-02-19T07:39:13.442Z,5.53
2023-02-19T07:42:15.853Z,5.55
2023-02-19T07:45:18.215Z,5.63
2023-02-19T07:48:21.430Z,5.47
2023-02-19T07:51:23.572Z,5.70
2023-02-19T07:54:26.169Z,5.57
2023-02-19T07:57:29.787Z,6.07
2023-02-19T08:00:33.598Z,5.53
2023-02-19T08:03:37.033Z,6.15
2023-02-19T08:06:39.795Z,6.93
2023-02-19T08:09:43.228Z,6.88
2023-02-19T08:13:04.292Z,7.82
2023-02-19T08:16:24.156Z,8.18
2023-02-19T08:19:32.505Z,7.00
2023-02-19T08:22:35.308Z,7.65
2023-02-19T08:25:39.489Z,7.75
2023-02-19T08:28:42.406Z,7.38
2023-02-19T08:31:44.867Z,7.20
2023-02-19T08:34:47.189Z,4.03
2023-02-19T08:37:50.916Z,2.55
2023-02-19T08:40:53.131Z,2.47
2023-02-19T08:43:55.901Z,2.40
2023-02-19T08:46:57.988Z,2.08
2023-02-19T08:50:00.555Z,2.17
2023-02-19T08:53:04.258Z,1.42
2023-02-19T08:56:12.158Z,1.52
2023-02-19T08:59:14.519Z,1.30
2023-02-19T09:02:16.938Z,1.50
2023-02-19T09:05:19.219Z,1.50
2023-02-19T09:08:24.520Z,1.60
2023-02-19T09:11:26.454Z,1.33
2023-02-19T09:14:33.236Z,1.63
2023-02-19T09:17:35.759Z,1.75
2023-02-19T09:20:38.318Z,1.50
2023-02-19T09:23:40.322Z,1.73
2023-02-19T09:26:42.684Z,1.27
2023-02-19T09:29:45.353Z,1.30
2023-02-19T09:32:48.050Z,2.03
2023-02-19T09:35:49.995Z,1.40
2023-02-19T09:38:52.656Z,1.33
2023-02-19T09:41:59.235Z,1.10
2023-02-19T09:45:02.468Z,0.90
2023-02-19T09:48:06.454Z,1.40
2023-02-19T09:51:11.025Z,1.77
2023-02-19T09:54:22.064Z,1.85
2023-02-19T09:57:26.749Z,1.30
2023-02-19T10:00:34.528Z,1.00
2023-02-19T10:03:44.010Z,1.40
2023-02-19T10:06:47.844Z,1.20
2023-02-19T10:09:59.367Z,1.42
2023-02-19T10:13:11.194Z,1.35
2023-02-19T10:16:21.869Z,1.40
2023-02-19T10:19:24.171Z,1.10
2023-02-19T10:22:27.051Z,1.25
2023-02-19T10:25:30.627Z,0.93
2023-02-19T10:31:37.407Z,0.98
2023-02-19T10:34:39.893Z,1.10
2023-02-19T10:37:51.675Z,1.10
2023-02-19T10:41:01.431Z,1.38
2023-02-19T10:44:08.098Z,1.10
2023-02-19T10:47:20.602Z,1.00
2023-02-19T10:50:33.114Z,1.10
2023-02-19T10:53:49.292Z,0.82
2023-02-19T10:56:51.515Z,0.80
2023-02-19T11:00:30.584Z,0.80
2023-02-19T11:03:32.790Z,0.80
2023-02-19T11:06:37.367Z,0.90
2023-02-19T11:09:48.454Z,0.70
2023-02-19T11:12:53.004Z,0.50
2023-02-19T11:15:56.135Z,0.93
2023-02-19T11:18:58.961Z,0.63
2023-02-19T11:22:02.171Z,0.57
2023-02-19T11:25:25.273Z,0.40
2023-02-19T11:28:27.434Z,0.70
2023-02-19T11:31:38.126Z,0.60
2023-02-19T11:34:40.518Z,0.30
2023-02-19T11:38:00.596Z,0.63
2023-02-19T11:41:06.032Z,0.60
2023-02-19T11:44:35.010Z,0.45
2023-02-19T11:48:09.977Z,0.73
2023-02-19T11:51:39.135Z,0.60
2023-02-19T11:54:52.905Z,0.57
2023-02-19T11:58:32.849Z,0.50
2023-02-19T12:02:02.958Z,0.38
2023-02-19T12:05:20.694Z,0.80
2023-02-19T12:08:29.833Z,0.60
2023-02-19T12:11:50.635Z,0.63
2023-02-19T12:15:28.166Z,0.82
2023-02-19T12:18:44.044Z,0.70
2023-02-19T12:22:20.277Z,0.82
2023-02-19T12:25:34.328Z,0.80
2023-02-19T12:28:59.497Z,0.40
2023-02-19T12:32:22.996Z,0.80
2023-02-19T12:35:46.438Z,1.33
2023-02-19T12:38:53.653Z,0.80
2023-02-19T12:42:11.429Z,1.70
2023-02-19T12:45:23.162Z,1.23
2023-02-19T12:48:34.407Z,1.30
2023-02-19T12:51:43.525Z,0.45
2023-02-19T12:54:50.221Z,0.50
2023-02-19T12:57:55.883Z,0.80
2023-02-19T13:01:00.033Z,0.95
2023-02-19T13:04:25.777Z,0.40
2023-02-19T13:07:34.121Z,0.43
2023-02-19T13:10:55.151Z,0.70
2023-02-19T13:14:03.678Z,1.00
2023-02-19T13:17:48.478Z,0.82
2023-02-19T13:20:57.483Z,0.93
2023-02-19T13:24:07.716Z,1.05
2023-02-19T13:31:45.035Z,1.35
2023-02-19T13:35:11.769Z,1.80
2023-02-19T13:38:15.648Z,3.58
2023-02-19T13:41:38.689Z,1.60
2023-02-19T13:44:42.021Z,0.93
2023-02-19T13:48:00.215Z,3.30
2023-02-19T13:51:23.776Z,3.53
2023-02-19T13:54:42.822Z,4.65
2023-02-19T13:57:47.520Z,4.95
2023-02-19T14:00:50.668Z,5.97
2023-02-19T14:04:10.172Z,6.43
2023-02-19T14:07:12.250Z,6.30
2023-02-19T14:10:58.056Z,6.97
2023-02-19T14:14:06.867Z,6.20
2023-02-19T14:17:09.891Z,6.03
2023-02-19T14:20:15.272Z,5.97
2023-02-19T14:23:24.306Z,5.85
2023-02-19T14:26:27.005Z,6.15
2023-02-19T14:29:29.647Z,6.57
2023-02-19T14:32:32.025Z,7.20
2023-02-19T14:35:41.262Z,6.50
2023-02-19T14:38:52.064Z,7.07
2023-02-19T14:42:00.993Z,7.53
2023-02-19T14:45:07.904Z,7.35
2023-02-19T14:48:27.789Z,7.00
2023-02-19T14:51:40.246Z,6.93
2023-02-19T14:54:53.380Z,6.57
2023-02-19T14:57:58.539Z,6.53
2023-02-19T15:01:01.164Z,6.95
2023-02-19T15:04:04.588Z,1.25
2023-02-19T15:07:10.072Z,5.63
2023-02-19T15:10:15.132Z,0.57
2023-02-19T15:13:25.678Z,0.68
2023-02-19T15:16:29.294Z,0.80
2023-02-19T15:19:40.100Z,0.80
2023-02-19T15:22:42.731Z,0.65
2023-02-19T15:25:45.308Z,1.10
2023-02-19T15:28:47.885Z,1.08
2023-02-19T15:31:54.563Z,0.80
2023-02-19T15:35:03.290Z,1.10
2023-02-19T15:38:07.857Z,2.45
2023-02-19T15:41:21.091Z,2.10
2023-02-19T15:44:37.281Z,0.65
2023-02-19T15:48:00.963Z,3.00
2023-02-19T15:51:11.718Z,0.40
2023-02-19T15:54:56.225Z,1.15
2023-02-19T15:58:27.864Z,1.73
2023-02-19T16:01:33.217Z,1.48
2023-02-19T16:04:36.572Z,1.20
2023-02-19T16:07:39.830Z,2.17
2023-02-19T16:10:53.272Z,2.13
2023-02-19T16:14:29.255Z,2.67
2023-02-19T16:17:34.126Z,2.50
2023-02-19T16:20:37.049Z,1.00
2023-02-19T16:23:44.719Z,1.73
2023-02-19T16:26:47.139Z,2.50
2023-02-19T16:29:51.753Z,1.50
2023-02-19T16:33:22.044Z,2.80
2023-02-19T16:36:41.642Z,3.05
2023-02-19T16:39:44.400Z,2.78
2023-02-19T16:42:49.825Z,2.80
2023-02-19T16:45:52.259Z,2.95
2023-02-19T16:48:55.284Z,2.47
2023-02-19T16:51:59.715Z,2.90
2023-02-19T16:55:02.452Z,2.47
2023-02-19T16:58:04.661Z,2.70
2023-02-19T17:01:07.526Z,2.90
2023-02-19T17:04:12.128Z,2.88
2023-02-19T17:07:16.699Z,2.47
2023-02-19T17:10:24.371Z,2.85
2023-02-19T17:13:26.944Z,1.83
2023-02-19T17:16:34.463Z,2.90
2023-02-19T17:19:39.802Z,2.60
2023-02-19T17:22:42.081Z,2.20
2023-02-19T17:25:44.850Z,2.33
2023-02-19T17:28:47.891Z,2.55
2023-02-19T17:31:52.366Z,3.13
2023-02-19T17:34:54.635Z,2.58
2023-02-19T17:37:57.104Z,2.00
2023-02-19T17:40:59.420Z,2.45
2023-02-19T17:44:02.112Z,2.10
2023-02-19T17:47:06.949Z,2.17
2023-02-19T17:50:15.367Z,2.80
2023-02-19T17:53:17.539Z,2.22
2023-02-19T17:56:26.820Z,2.45
2023-02-19T17:59:29.188Z,2.53
2023-02-19T18:02:31.958Z,2.53
2023-02-19T18:05:34.192Z,2.40
2023-02-19T18:08:36.512Z,2.33
2023-02-19T18:11:39.274Z,2.50
2023-02-19T18:14:41.569Z,2.70
2023-02-19T18:17:44.863Z,2.88
2023-02-19T18:20:47.628Z,2.80
2023-02-19T18:23:50.458Z,2.85
2023-02-19T18:26:53.119Z,2.60
2023-02-19T18:29:56.367Z,2.83
2023-02-19T18:32:59.018Z,2.80
2023-02-19T18:36:01.098Z,2.50
2023-02-19T18:39:04.029Z,2.60
2023-02-19T18:42:06.498Z,3.05
2023-02-19T18:45:09.941Z,2.47
2023-02-19T18:48:13.750Z,2.70
2023-02-19T18:51:22.212Z,2.83
2023-02-19T18:54:24.423Z,3.08
2023-02-19T18:57:28.769Z,2.58
2023-02-19T19:00:31.674Z,2.60
2023-02-19T19:03:46.153Z,2.83
2023-02-19T19:07:00.061Z,2.47
2023-02-19T19:10:08.233Z,2.58
2023-02-19T19:13:10.742Z,2.00
2023-02-19T19:16:14.554Z,2.10
2023-02-19T19:19:17.436Z,2.67
2023-02-19T19:22:22.992Z,2.28
2023-02-19T19:25:25.028Z,2.13
2023-02-19T19:28:27.632Z,2.15
2023-02-19T19:31:36.123Z,1.85
2023-02-19T19:34:38.923Z,1.92
2023-02-19T19:37:41.279Z,2.15
2023-02-19T19:40:44.057Z,1.90
2023-02-19T19:43:46.337Z,2.00
2023-02-19T19:46:49.427Z,1.70
2023-02-19T19:49:51.574Z,1.98
2023-02-19T19:52:54.362Z,1.90
2023-02-19T19:55:56.827Z,1.65
2023-02-19T19:58:59.517Z,1.90
2023-02-19T20:02:03.277Z,2.03
2023-02-19T20:05:06.982Z,1.80
2023-02-19T20:08:08.956Z,1.73
2023-02-19T20:11:11.754Z,1.70
2023-02-19T20:14:15.595Z,1.60
2023-02-19T20:17:19.006Z,1.63
2023-02-19T20:20:22.849Z,1.70
2023-02-19T20:23:27.381Z,1.27
2023-02-19T20:26:30.723Z,1.50
2023-02-19T20:29:34.397Z,1.70
2023-02-19T20:32:36.726Z,2.20
2023-02-19T20:35:41.430Z,1.75
2023-02-19T20:38:45.080Z,2.22
2023-02-19T20:41:51.804Z,1.85
2023-02-19T20:44:54.589Z,2.85
2023-02-19T20:47:57.696Z,2.55
2023-02-19T20:51:00.284Z,1.45
2023-02-19T20:54:02.939Z,1.80
2023-02-19T20:57:06.146Z,1.63
2023-02-19T21:00:09.603Z,1.90
2023-02-19T21:03:12.370Z,1.90
2023-02-19T21:06:15.087Z,1.70
2023-02-19T21:09:17.662Z,1.70
2023-02-19T21:12:22.325Z,1.90
2023-02-19T21:15:24.489Z,1.20
2023-02-19T21:18:27.070Z,1.30
2023-02-19T21:21:31.305Z,1.05
2023-02-19T21:24:33.968Z,1.35
2023-02-19T21:27:36.762Z,1.27
2023-02-19T21:30:39.078Z,1.25
2023-02-19T21:33:41.101Z,1.50
2023-02-19T21:36:43.852Z,1.30
2023-02-19T21:39:47.105Z,1.75
2023-02-19T21:42:49.913Z,1.50
2023-02-19T21:45:52.130Z,1.40
2023-02-19T21:48:56.363Z,1.08
2023-02-19T21:51:58.565Z,1.30
2023-02-19T21:55:01.030Z,1.48
2023-02-19T21:58:03.481Z,1.55
2023-02-19T22:01:06.254Z,1.38
2023-02-19T22:04:10.472Z,1.48
2023-02-19T22:10:16.807Z,1.25
2023-02-19T22:13:19.458Z,0.93
2023-02-19T22:16:22.010Z,1.45
2023-02-19T22:19:24.770Z,1.08
2023-02-19T22:22:26.908Z,0.95
2023-02-19T22:25:29.460Z,1.27
2023-02-19T22:28:31.494Z,0.93
2023-02-19T22:31:34.420Z,1.00
2023-02-19T22:34:43.185Z,1.25
2023-02-19T22:37:45.677Z,1.00
2023-02-19T22:40:48.023Z,1.15
2023-02-19T22:43:51.471Z,1.00
2023-02-19T22:46:55.812Z,1.08
2023-02-19T22:49:58.376Z,1.15
2023-02-19T22:53:00.742Z,1.08
2023-02-19T22:56:03.440Z,1.05
2023-02-19T22:59:05.637Z,0.88
2023-02-19T23:02:08.378Z,1.00
2023-02-19T23:05:10.464Z,0.90
2023-02-19T23:08:12.996Z,1.02
2023-02-19T23:11:21.353Z,0.98
2023-02-19T23:14:24.579Z,0.85
2023-02-19T23:17:26.866Z,1.00
2023-02-19T23:20:29.591Z,1.00
2023-02-19T23:23:31.490Z,1.23
2023-02-19T23:26:34.269Z,0.80
2023-02-19T23:29:36.230Z,0.80
2023-02-19T23:32:38.822Z,0.88
2023-02-19T23:35:40.754Z,1.25
2023-02-19T23:38:46.703Z,0.88
2023-02-19T23:41:54.085Z,0.95
2023-02-19T23:44:56.538Z,1.13
2023-02-19T23:47:58.710Z,0.98
2023-02-19T23:51:01.302Z,1.05
2023-02-19T23:54:04.300Z,1.17
2023-02-19T23:57:06.760Z,0.82
